Search for airport 
image banner adimage banner adimage banner ad
image banner ad

5CL3 - Mapes Ranch

Located in Modesto, United States

ICAO - 5CL3, IATA -

Data provided by Airmate  

General information

Coordinates: N37°40'5" W121°11'55"
Elevation is 34 feet MSL.
Magnetic variation is 16° East
View others Airports in California

Operational data

Special qualification required
Current time UTC:
Current local time:
Weather at : KTCY - Tracy Muni ( 21 km )
METAR: KTCY 270435Z AUTO 01005KT 10SM SCT036 SCT041 BKN050 23/12 A2990 RMK A01
View NOTAMs / SUP AIP / TFR affecting this airport [VIEW]
Communications frequencies: [VIEW]

Runways:

RWY identifierQFULength (ft)Width (ft)SurfaceLDA (ft)
111800125EARTH
291800125EARTH

Airport contact information

Address: Modesto United States

Satellite view of 5CL3